Time;durP1;ratioP1;P1;durP2;ratioP2;P2;SDS_P1;SDS_P2;PMS_P1;PMS_P2;Temp;Humidity;BMP_temperature;BMP_pressure;BME280_temperature;BME280_humidity;BME280_pressure;Samples;Min_cycle;Max_cycle;Signal;HPM_P1;HPM_P2
2021/12/27 00:02:24;;;;;;;19.57;12.03;;;;;;;;;;5047162;28;20210;-79
2021/12/27 00:04:51;;;;;;;18.63;11.87;;;;;;;;;;5055874;28;20706;-78
2021/12/27 00:07:18;;;;;;;20.97;11.30;;;;;;;;;;5055543;28;20227;-79
2021/12/27 00:09:45;;;;;;;17.90;10.97;;;;;;;;;;5055974;28;20295;-79
2021/12/27 00:12:12;;;;;;;18.67;11.23;;;;;;;;;;5056325;28;20206;-79
2021/12/27 00:14:40;;;;;;;17.43;10.80;;;;;;;;;;5055428;28;20235;-79
2021/12/27 00:17:08;;;;;;;19.63;10.83;;;;;;;;;;5056505;28;20216;-79
2021/12/27 00:19:35;;;;;;;14.80;10.57;;;;;;;;;;5054958;28;20247;-79
2021/12/27 00:22:02;;;;;;;14.53;10.77;;;;;;;;;;5056180;28;20206;-79
2021/12/27 00:24:29;;;;;;;17.83;11.17;;;;;;;;;;5055300;28;20238;-79
2021/12/27 00:26:56;;;;;;;17.43;9.90;;;;;;;;;;5056699;28;20618;-78
2021/12/27 00:29:23;;;;;;;17.67;10.70;;;;;;;;;;5054419;28;20238;-78
2021/12/27 00:31:50;;;;;;;15.90;10.67;;;;;;;;;;5055958;28;20194;-78
2021/12/27 00:34:18;;;;;;;14.40;10.30;;;;;;;;;;5055591;28;20372;-79
2021/12/27 00:36:45;;;;;;;15.53;10.00;;;;;;;;;;5053143;28;20211;-79
2021/12/27 00:39:13;;;;;;;17.23;11.40;;;;;;;;;;5051871;28;20710;-79
2021/12/27 00:41:40;;;;;;;20.13;10.50;;;;;;;;;;5052147;28;20688;-79
2021/12/27 00:44:07;;;;;;;18.10;10.43;;;;;;;;;;5051583;28;20232;-79
2021/12/27 00:46:34;;;;;;;16.83;9.57;;;;;;;;;;5051961;28;20210;-79
2021/12/27 00:49:01;;;;;;;15.33;10.20;;;;;;;;;;5051590;28;20693;-79
2021/12/27 00:51:29;;;;;;;17.13;10.63;;;;;;;;;;5052351;28;20206;-79
2021/12/27 00:53:56;;;;;;;17.13;10.50;;;;;;;;;;5052475;28;20244;-79
2021/12/27 00:56:23;;;;;;;19.07;11.00;;;;;;;;;;5052315;28;20202;-79
2021/12/27 00:58:50;;;;;;;19.10;11.03;;;;;;;;;;5052804;28;20234;-79
2021/12/27 01:01:17;;;;;;;21.10;11.53;;;;;;;;;;5052315;28;20673;-79
2021/12/27 01:03:44;;;;;;;23.53;12.87;;;;;;;;;;5052410;28;20246;-79
2021/12/27 01:06:11;;;;;;;21.27;13.03;;;;;;;;;;5052245;28;20209;-79
2021/12/27 01:08:40;;;;;;;25.83;12.67;;;;;;;;;;5052412;28;20243;-79
2021/12/27 01:11:24;;;;;;;24.53;13.60;;;;;;;;;;5052138;28;20227;-79
2021/12/27 01:14:03;;;;;;;26.87;13.77;;;;;;;;;;5052682;28;20255;-79
2021/12/27 01:16:30;;;;;;;29.33;14.70;;;;;;;;;;5052548;28;20255;-79
2021/12/27 01:18:57;;;;;;;27.27;14.50;;;;;;;;;;5052403;28;20615;-79
2021/12/27 01:21:25;;;;;;;26.37;13.90;;;;;;;;;;5053358;28;20214;-79
2021/12/27 01:23:54;;;;;;;30.13;15.60;;;;;;;;;;5053206;28;20237;-80
2021/12/27 01:26:21;;;;;;;25.77;14.23;;;;;;;;;;5052931;28;20250;-79
2021/12/27 01:28:48;;;;;;;26.90;15.10;;;;;;;;;;5051953;28;20234;-79
2021/12/27 01:31:15;;;;;;;32.43;15.27;;;;;;;;;;5052315;28;20205;-80
2021/12/27 01:33:44;;;;;;;25.77;13.73;;;;;;;;;;5052405;28;20221;-79
2021/12/27 01:36:11;;;;;;;31.20;15.20;;;;;;;;;;5052788;28;20220;-80
2021/12/27 01:38:40;;;;;;;34.50;15.40;;;;;;;;;;5052611;28;20234;-79
2021/12/27 01:41:10;;;;;;;32.13;15.80;;;;;;;;;;5053685;28;20566;-79
2021/12/27 01:43:38;;;;;;;28.63;14.37;;;;;;;;;;5053852;28;20587;-79
2021/12/27 01:46:06;;;;;;;27.97;14.93;;;;;;;;;;5054611;28;20222;-80
2021/12/27 01:48:37;;;;;;;31.33;14.80;;;;;;;;;;5056057;28;20693;-80
2021/12/27 01:51:05;;;;;;;29.53;15.77;;;;;;;;;;5054926;28;20200;-80
2021/12/27 01:53:33;;;;;;;26.30;14.50;;;;;;;;;;5054503;28;20235;-79
2021/12/27 01:56:01;;;;;;;27.70;14.53;;;;;;;;;;5054905;28;20236;-80
2021/12/27 01:58:29;;;;;;;34.27;15.37;;;;;;;;;;5054907;28;20710;-79
2021/12/27 02:00:57;;;;;;;26.20;15.00;;;;;;;;;;5053210;28;20206;-80
2021/12/27 02:03:26;;;;;;;30.93;15.03;;;;;;;;;;5051132;28;20239;-79
2021/12/27 02:05:54;;;;;;;28.30;14.17;;;;;;;;;;5050014;28;20212;-79
2021/12/27 02:08:21;;;;;;;26.27;13.60;;;;;;;;;;5053730;28;20609;-79
2021/12/27 02:10:49;;;;;;;27.50;15.30;;;;;;;;;;5055050;28;20220;-80
2021/12/27 02:13:16;;;;;;;28.77;15.50;;;;;;;;;;5053889;28;20202;-80
2021/12/27 02:15:45;;;;;;;25.87;14.13;;;;;;;;;;5055086;28;20203;-80
2021/12/27 02:18:12;;;;;;;26.23;14.30;;;;;;;;;;5054218;28;20230;-79
2021/12/27 02:20:41;;;;;;;27.10;13.33;;;;;;;;;;5054207;28;20219;-80
2021/12/27 02:23:12;;;;;;;29.53;14.47;;;;;;;;;;5053854;28;20685;-80
2021/12/27 02:25:40;;;;;;;26.53;14.53;;;;;;;;;;5054108;28;20727;-79
2021/12/27 02:28:09;;;;;;;27.13;14.80;;;;;;;;;;5054325;28;20228;-80
2021/12/27 02:30:36;;;;;;;31.20;15.23;;;;;;;;;;5039713;28;20198;-79
2021/12/27 02:33:05;;;;;;;30.10;15.03;;;;;;;;;;5054675;28;20201;-79
2021/12/27 02:35:34;;;;;;;26.90;15.00;;;;;;;;;;5054869;28;20230;-80
2021/12/27 02:38:03;;;;;;;27.87;13.43;;;;;;;;;;5053720;28;20203;-80
2021/12/27 02:40:31;;;;;;;27.03;14.17;;;;;;;;;;5054770;28;20610;-79
2021/12/27 02:43:00;;;;;;;28.57;14.27;;;;;;;;;;5054688;28;20203;-80
2021/12/27 02:45:28;;;;;;;28.83;14.90;;;;;;;;;;5054114;28;20218;-80
2021/12/27 02:47:55;;;;;;;26.73;14.33;;;;;;;;;;5054896;28;20210;-80
2021/12/27 02:50:23;;;;;;;24.10;13.73;;;;;;;;;;5054637;28;20234;-79
2021/12/27 02:52:50;;;;;;;30.00;14.40;;;;;;;;;;5055456;28;20206;-79
2021/12/27 02:55:19;;;;;;;29.67;14.57;;;;;;;;;;5054047;28;20595;-80
2021/12/27 02:57:46;;;;;;;31.70;15.23;;;;;;;;;;5055160;28;20206;-79
2021/12/27 03:00:15;;;;;;;25.00;13.43;;;;;;;;;;5054229;28;20283;-79
2021/12/27 03:02:43;;;;;;;30.93;15.00;;;;;;;;;;5054932;28;20195;-79
2021/12/27 03:05:11;;;;;;;25.00;13.73;;;;;;;;;;5054559;28;20254;-80
2021/12/27 03:07:39;;;;;;;27.20;14.17;;;;;;;;;;5054617;28;20221;-80
2021/12/27 03:10:07;;;;;;;30.17;13.93;;;;;;;;;;5057199;28;20236;-80
2021/12/27 03:12:37;;;;;;;26.53;13.83;;;;;;;;;;5058273;28;20369;-80
2021/12/27 03:15:05;;;;;;;25.00;13.50;;;;;;;;;;5057720;28;20277;-79
2021/12/27 03:17:32;;;;;;;25.40;13.10;;;;;;;;;;5058118;28;20214;-79
2021/12/27 03:19:59;;;;;;;21.20;13.83;;;;;;;;;;5057691;28;20233;-79
2021/12/27 03:22:26;;;;;;;24.47;13.10;;;;;;;;;;5057954;28;20211;-79
2021/12/27 03:24:54;;;;;;;28.67;12.73;;;;;;;;;;5057988;28;20287;-79
2021/12/27 03:27:21;;;;;;;22.93;12.83;;;;;;;;;;5058360;28;20781;-80
2021/12/27 03:29:49;;;;;;;21.20;13.13;;;;;;;;;;5057980;28;20764;-80
2021/12/27 03:32:17;;;;;;;24.07;12.50;;;;;;;;;;5039762;28;20219;-79
2021/12/27 03:34:53;;;;;;;23.87;12.60;;;;;;;;;;5051250;28;20280;-79
2021/12/27 03:37:20;;;;;;;23.00;12.40;;;;;;;;;;5052299;28;20208;-79
2021/12/27 03:39:47;;;;;;;23.07;12.17;;;;;;;;;;5058549;28;20231;-80
2021/12/27 03:42:15;;;;;;;24.17;12.93;;;;;;;;;;5056743;28;20203;-80
2021/12/27 03:44:42;;;;;;;22.03;13.60;;;;;;;;;;5057381;28;20260;-80
2021/12/27 03:47:11;;;;;;;22.10;12.43;;;;;;;;;;5058924;28;20198;-80
2021/12/27 03:49:38;;;;;;;27.93;12.50;;;;;;;;;;5056946;28;20260;-79
2021/12/27 03:52:05;;;;;;;23.60;12.13;;;;;;;;;;5057535;28;20206;-79
2021/12/27 03:54:32;;;;;;;19.73;11.90;;;;;;;;;;5056198;28;20889;-79
2021/12/27 03:56:59;;;;;;;20.53;11.83;;;;;;;;;;5058287;28;20671;-79
2021/12/27 03:59:47;;;;;;;21.40;11.97;;;;;;;;;;5053909;28;20241;-80
2021/12/27 04:02:15;;;;;;;21.90;12.93;;;;;;;;;;5055384;28;20285;-80
2021/12/27 04:04:43;;;;;;;19.17;11.47;;;;;;;;;;5056762;28;20218;-79
2021/12/27 04:07:11;;;;;;;24.13;10.87;;;;;;;;;;5058359;28;20200;-79
2021/12/27 04:09:38;;;;;;;22.83;11.20;;;;;;;;;;5054193;28;20237;-79
2021/12/27 04:12:05;;;;;;;26.13;13.30;;;;;;;;;;5056722;28;20227;-79
2021/12/27 04:14:32;;;;;;;21.60;11.97;;;;;;;;;;5054793;28;20706;-79
2021/12/27 04:16:59;;;;;;;20.40;11.77;;;;;;;;;;5058629;28;20201;-79
2021/12/27 04:19:28;;;;;;;23.03;11.73;;;;;;;;;;5057443;28;20257;-79
2021/12/27 04:21:56;;;;;;;20.50;11.90;;;;;;;;;;5057635;28;20280;-79
2021/12/27 04:24:23;;;;;;;21.10;10.90;;;;;;;;;;5055655;28;20259;-79
2021/12/27 04:26:50;;;;;;;21.53;12.37;;;;;;;;;;5055279;28;20203;-79
2021/12/27 04:29:17;;;;;;;20.13;12.30;;;;;;;;;;5055871;28;20265;-80
2021/12/27 04:31:44;;;;;;;23.67;12.03;;;;;;;;;;5054777;28;20216;-80
2021/12/27 04:34:11;;;;;;;22.63;12.93;;;;;;;;;;5057666;28;20465;-80
2021/12/27 04:36:39;;;;;;;21.00;12.63;;;;;;;;;;5058002;28;20213;-79
2021/12/27 04:39:08;;;;;;;19.83;12.57;;;;;;;;;;5058032;28;20244;-80
2021/12/27 04:41:35;;;;;;;19.07;11.93;;;;;;;;;;5056931;28;20232;-80
2021/12/27 04:44:02;;;;;;;22.43;12.43;;;;;;;;;;5054832;28;20677;-79
2021/12/27 04:46:29;;;;;;;22.40;13.17;;;;;;;;;;5057647;28;20281;-79
2021/12/27 04:48:56;;;;;;;21.97;12.63;;;;;;;;;;5055090;28;20263;-80
2021/12/27 04:51:24;;;;;;;28.60;14.20;;;;;;;;;;5055667;28;20214;-80
2021/12/27 04:53:52;;;;;;;24.43;13.67;;;;;;;;;;5057470;28;20230;-80
2021/12/27 04:56:19;;;;;;;21.40;13.27;;;;;;;;;;5058180;28;20198;-79
2021/12/27 04:58:47;;;;;;;19.63;13.03;;;;;;;;;;5057774;28;20238;-79
2021/12/27 05:01:14;;;;;;;26.53;13.87;;;;;;;;;;5057726;28;20207;-80
2021/12/27 05:03:41;;;;;;;19.13;13.23;;;;;;;;;;5057278;28;20242;-79
2021/12/27 05:06:08;;;;;;;24.73;12.77;;;;;;;;;;5055937;28;20226;-80
2021/12/27 05:08:35;;;;;;;17.83;12.57;;;;;;;;;;5055624;28;20240;-80
2021/12/27 05:11:04;;;;;;;23.50;12.37;;;;;;;;;;5057383;28;20215;-79
2021/12/27 05:13:32;;;;;;;19.37;12.00;;;;;;;;;;5056990;28;20237;-79
2021/12/27 05:15:59;;;;;;;18.37;10.80;;;;;;;;;;5059515;28;20224;-80
2021/12/27 05:18:26;;;;;;;21.57;12.90;;;;;;;;;;5056710;28;20257;-80
2021/12/27 05:20:54;;;;;;;23.60;12.33;;;;;;;;;;5056195;28;20214;-80
2021/12/27 05:23:21;;;;;;;18.63;11.70;;;;;;;;;;5055974;28;20718;-79
2021/12/27 05:25:48;;;;;;;20.97;11.80;;;;;;;;;;5057403;28;20723;-80
2021/12/27 05:28:16;;;;;;;22.33;12.57;;;;;;;;;;5057285;28;20244;-80
2021/12/27 05:30:47;;;;;;;16.40;11.17;;;;;;;;;;5056180;28;20206;-79
2021/12/27 05:33:14;;;;;;;19.37;11.90;;;;;;;;;;5056732;28;20659;-79
2021/12/27 05:35:41;;;;;;;19.50;12.20;;;;;;;;;;5057266;28;20264;-80
2021/12/27 05:38:09;;;;;;;17.17;12.07;;;;;;;;;;5056613;28;20223;-79
2021/12/27 05:40:36;;;;;;;19.80;12.33;;;;;;;;;;5056544;28;20236;-80
2021/12/27 05:43:03;;;;;;;18.97;12.67;;;;;;;;;;5056263;28;20206;-80
2021/12/27 05:45:32;;;;;;;18.63;11.50;;;;;;;;;;5056913;28;20226;-80
2021/12/27 05:47:59;;;;;;;18.10;12.27;;;;;;;;;;5056226;28;20272;-79
2021/12/27 05:50:26;;;;;;;14.57;10.67;;;;;;;;;;5056980;28;20238;-80
2021/12/27 05:52:53;;;;;;;17.10;11.50;;;;;;;;;;5055664;28;20211;-79
2021/12/27 05:55:21;;;;;;;15.97;10.60;;;;;;;;;;5056282;28;20242;-80
2021/12/27 05:57:48;;;;;;;18.03;11.13;;;;;;;;;;5055251;28;20211;-80
2021/12/27 06:00:16;;;;;;;18.23;11.43;;;;;;;;;;5046553;28;20308;-80
2021/12/27 06:02:45;;;;;;;19.37;12.10;;;;;;;;;;5031641;28;20215;-80
2021/12/27 06:05:12;;;;;;;20.83;10.73;;;;;;;;;;5031255;28;20236;-80
2021/12/27 06:07:40;;;;;;;17.57;11.63;;;;;;;;;;5031837;28;20214;-79
2021/12/27 06:10:08;;;;;;;18.27;10.87;;;;;;;;;;5031903;28;20235;-82
2021/12/27 06:12:35;;;;;;;16.00;11.33;;;;;;;;;;5033151;28;20264;-82
2021/12/27 06:15:02;;;;;;;15.77;10.43;;;;;;;;;;5032225;28;20655;-82
2021/12/27 06:17:31;;;;;;;19.73;11.30;;;;;;;;;;5031985;28;20267;-82
2021/12/27 06:20:00;;;;;;;16.43;10.40;;;;;;;;;;5032014;28;20741;-82
2021/12/27 06:22:28;;;;;;;19.73;11.33;;;;;;;;;;5032642;28;20203;-82
2021/12/27 06:24:55;;;;;;;22.20;11.47;;;;;;;;;;5032920;28;20234;-82
2021/12/27 06:27:22;;;;;;;20.53;11.63;;;;;;;;;;5035832;28;20256;-82
2021/12/27 06:29:49;;;;;;;19.43;11.47;;;;;;;;;;5032795;28;20238;-82
2021/12/27 06:32:16;;;;;;;22.13;12.17;;;;;;;;;;5031893;28;20214;-82
2021/12/27 06:34:43;;;;;;;21.73;12.40;;;;;;;;;;5034725;28;20240;-82
2021/12/27 06:37:11;;;;;;;22.13;11.83;;;;;;;;;;5035511;28;20297;-82
2021/12/27 06:39:39;;;;;;;23.10;12.03;;;;;;;;;;5035178;28;20304;-82
2021/12/27 06:42:06;;;;;;;17.20;12.10;;;;;;;;;;5034659;28;20215;-82
2021/12/27 06:44:33;;;;;;;20.60;12.77;;;;;;;;;;5038508;28;20285;-82
2021/12/27 06:47:00;;;;;;;26.50;13.23;;;;;;;;;;5039882;28;20498;-82
2021/12/27 06:49:27;;;;;;;23.23;12.30;;;;;;;;;;5040124;28;20235;-82
2021/12/27 06:51:55;;;;;;;26.23;13.87;;;;;;;;;;5040274;28;20242;-82
2021/12/27 06:54:23;;;;;;;30.27;14.20;;;;;;;;;;5040078;28;20248;-82
2021/12/27 06:56:50;;;;;;;22.73;12.77;;;;;;;;;;5040102;28;20204;-82
2021/12/27 06:59:17;;;;;;;29.87;12.40;;;;;;;;;;5037735;28;20235;-82
2021/12/27 07:01:44;;;;;;;21.63;11.37;;;;;;;;;;5057979;28;20529;-82
2021/12/27 07:04:11;;;;;;;20.63;11.67;;;;;;;;;;5059111;28;20240;-82
2021/12/27 07:06:38;;;;;;;26.93;11.27;;;;;;;;;;5059314;28;20238;-82
2021/12/27 07:09:06;;;;;;;19.60;11.73;;;;;;;;;;5059641;28;20265;-82
2021/12/27 07:11:35;;;;;;;20.50;11.90;;;;;;;;;;5059227;28;20855;-82
2021/12/27 07:14:03;;;;;;;21.47;12.10;;;;;;;;;;5059926;28;20254;-82
2021/12/27 07:16:30;;;;;;;23.27;11.40;;;;;;;;;;5060058;28;20220;-82
2021/12/27 07:18:57;;;;;;;21.90;13.13;;;;;;;;;;5058833;28;20247;-82
2021/12/27 07:21:24;;;;;;;25.77;14.07;;;;;;;;;;5057621;28;20676;-82
2021/12/27 07:23:51;;;;;;;27.37;13.70;;;;;;;;;;5057902;28;20246;-82
2021/12/27 07:26:18;;;;;;;24.00;14.27;;;;;;;;;;5059861;28;20237;-82
2021/12/27 07:28:47;;;;;;;24.90;14.33;;;;;;;;;;5060329;28;20266;-82
2021/12/27 07:31:14;;;;;;;31.97;15.90;;;;;;;;;;5059085;28;20211;-82
2021/12/27 07:33:41;;;;;;;34.23;16.67;;;;;;;;;;5059985;28;20240;-82
2021/12/27 07:36:10;;;;;;;28.40;17.20;;;;;;;;;;5060377;28;20236;-82
2021/12/27 07:38:37;;;;;;;32.83;16.47;;;;;;;;;;5059159;28;20597;-82
2021/12/27 07:41:04;;;;;;;30.40;16.57;;;;;;;;;;5059331;28;20214;-82
2021/12/27 07:43:31;;;;;;;30.03;16.27;;;;;;;;;;5057533;28;20239;-82
2021/12/27 07:46:00;;;;;;;19.47;12.93;;;;;;;;;;5059448;28;20233;-82
2021/12/27 07:48:27;;;;;;;23.23;13.03;;;;;;;;;;5058894;28;20241;-82
2021/12/27 07:50:54;;;;;;;31.40;14.73;;;;;;;;;;5059573;28;20213;-82
2021/12/27 07:53:21;;;;;;;22.30;13.23;;;;;;;;;;5058494;28;20234;-82
2021/12/27 07:55:48;;;;;;;21.83;13.37;;;;;;;;;;5060006;28;20204;-82
2021/12/27 07:58:15;;;;;;;19.67;12.57;;;;;;;;;;5058666;28;20233;-82
2021/12/27 08:00:42;;;;;;;26.13;13.47;;;;;;;;;;5048095;28;20669;-82
2021/12/27 08:03:11;;;;;;;21.80;13.40;;;;;;;;;;5038246;28;20213;-82
2021/12/27 08:05:38;;;;;;;23.70;13.37;;;;;;;;;;5039388;28;20260;-82
2021/12/27 08:08:05;;;;;;;25.17;13.50;;;;;;;;;;5038862;28;20216;-82
2021/12/27 08:10:32;;;;;;;24.03;13.20;;;;;;;;;;5039536;28;20218;-82
2021/12/27 08:13:01;;;;;;;27.83;14.30;;;;;;;;;;5038322;28;20213;-82
2021/12/27 08:15:28;;;;;;;24.80;13.90;;;;;;;;;;5038997;28;20203;-82
2021/12/27 08:17:55;;;;;;;24.33;14.13;;;;;;;;;;5039127;28;20217;-82
2021/12/27 08:20:23;;;;;;;27.57;15.33;;;;;;;;;;5039302;28;20234;-82
2021/12/27 08:22:50;;;;;;;24.10;14.03;;;;;;;;;;5039971;28;20206;-82
2021/12/27 08:25:17;;;;;;;24.57;13.87;;;;;;;;;;5039812;28;20248;-82
2021/12/27 08:27:45;;;;;;;23.23;13.60;;;;;;;;;;5040574;28;20226;-82
2021/12/27 08:30:12;;;;;;;26.20;14.20;;;;;;;;;;5039762;28;20248;-82
2021/12/27 08:32:41;;;;;;;25.23;14.70;;;;;;;;;;5039544;28;20839;-82
2021/12/27 08:35:09;;;;;;;27.67;14.57;;;;;;;;;;5038742;28;20234;-82
2021/12/27 08:37:38;;;;;;;32.47;15.30;;;;;;;;;;5039195;28;20206;-82
2021/12/27 08:40:06;;;;;;;28.30;15.27;;;;;;;;;;5038360;28;20242;-82
2021/12/27 08:42:33;;;;;;;27.13;15.27;;;;;;;;;;5042009;28;20207;-82
2021/12/27 08:45:03;;;;;;;35.93;19.37;;;;;;;;;;5039652;28;20301;-82
2021/12/27 08:47:30;;;;;;;35.07;17.07;;;;;;;;;;5039702;28;20356;-82
2021/12/27 08:49:57;;;;;;;31.57;16.23;;;;;;;;;;5038555;28;20236;-84
2021/12/27 08:52:24;;;;;;;35.17;16.43;;;;;;;;;;5041235;28;20210;-84
2021/12/27 08:54:52;;;;;;;29.37;16.03;;;;;;;;;;5039015;28;20241;-82
2021/12/27 08:57:19;;;;;;;33.70;15.60;;;;;;;;;;5040099;28;20210;-82
2021/12/27 08:59:46;;;;;;;35.10;17.80;;;;;;;;;;5040781;28;20303;-82
2021/12/27 09:02:13;;;;;;;30.23;16.17;;;;;;;;;;5058213;28;20213;-81
2021/12/27 09:04:41;;;;;;;26.97;16.37;;;;;;;;;;5057951;28;20233;-83
2021/12/27 09:07:09;;;;;;;24.50;13.87;;;;;;;;;;5057659;28;20725;-83
2021/12/27 09:09:36;;;;;;;29.80;16.10;;;;;;;;;;5058532;28;20261;-83
2021/12/27 09:12:05;;;;;;;30.07;15.07;;;;;;;;;;5058540;28;20209;-83
2021/12/27 09:14:32;;;;;;;35.57;15.73;;;;;;;;;;5057358;28;20778;-83
2021/12/27 09:17:00;;;;;;;46.10;17.80;;;;;;;;;;5058425;28;20215;-82
2021/12/27 09:19:27;;;;;;;37.87;17.73;;;;;;;;;;5058183;28;20251;-83
2021/12/27 09:21:54;;;;;;;37.13;17.23;;;;;;;;;;5058866;28;20213;-83
2021/12/27 09:24:21;;;;;;;37.00;18.90;;;;;;;;;;5057877;28;20237;-83
2021/12/27 09:26:48;;;;;;;40.07;18.27;;;;;;;;;;5057595;28;20267;-83
2021/12/27 09:29:16;;;;;;;40.40;19.03;;;;;;;;;;5054718;28;20245;-83
2021/12/27 09:31:44;;;;;;;39.70;19.00;;;;;;;;;;5057957;28;20244;-83
2021/12/27 09:34:11;;;;;;;43.10;19.83;;;;;;;;;;5057613;28;20728;-83
2021/12/27 09:36:38;;;;;;;42.17;19.00;;;;;;;;;;5058243;28;20206;-83
2021/12/27 09:39:07;;;;;;;60.63;22.13;;;;;;;;;;5056624;28;20241;-83
2021/12/27 09:41:34;;;;;;;53.53;22.03;;;;;;;;;;5058773;28;20225;-83
2021/12/27 09:44:01;;;;;;;54.60;21.80;;;;;;;;;;5056894;28;20237;-83
2021/12/27 09:46:29;;;;;;;44.77;21.07;;;;;;;;;;5058631;28;20263;-83
2021/12/27 09:48:58;;;;;;;43.23;19.50;;;;;;;;;;5057172;28;20248;-83
2021/12/27 09:51:26;;;;;;;47.37;19.37;;;;;;;;;;5057925;28;20206;-83
2021/12/27 09:53:53;;;;;;;45.63;19.60;;;;;;;;;;5057399;28;20252;-83
2021/12/27 09:56:20;;;;;;;42.80;19.97;;;;;;;;;;5057416;28;20209;-83
2021/12/27 09:58:48;;;;;;;55.53;22.30;;;;;;;;;;5056511;28;20234;-83
2021/12/27 10:01:16;;;;;;;50.53;20.60;;;;;;;;;;5041988;28;20212;-83
2021/12/27 10:03:49;;;;;;;44.33;19.63;;;;;;;;;;5036298;28;20606;-82
2021/12/27 10:06:16;;;;;;;41.37;19.43;;;;;;;;;;5036524;28;20226;-82
2021/12/27 10:08:47;;;;;;;48.10;18.57;;;;;;;;;;5044527;28;20242;-83
2021/12/27 10:11:18;;;;;;;50.43;19.80;;;;;;;;;;5056977;28;20210;-83
2021/12/27 10:13:58;;;;;;;43.43;19.83;;;;;;;;;;5056819;28;20721;-84
2021/12/27 10:16:25;;;;;;;45.77;19.23;;;;;;;;;;5058484;28;20198;-83
2021/12/27 10:18:55;;;;;;;43.83;20.50;;;;;;;;;;5062407;28;20234;-83
2021/12/27 10:21:22;;;;;;;48.57;21.83;;;;;;;;;;5058330;28;20217;-83
2021/12/27 10:23:50;;;;;;;49.70;20.63;;;;;;;;;;5056866;28;20229;-83
2021/12/27 10:26:18;;;;;;;46.63;20.43;;;;;;;;;;5058804;28;20237;-84
2021/12/27 10:28:49;;;;;;;47.13;20.00;;;;;;;;;;5060755;28;20713;-84
2021/12/27 10:31:16;;;;;;;45.27;21.33;;;;;;;;;;5061260;22;20230;-80
2021/12/27 10:33:43;;;;;;;39.50;20.10;;;;;;;;;;5043775;28;20284;-79
2021/12/27 10:36:12;;;;;;;46.40;20.37;;;;;;;;;;5043999;28;20211;-79
2021/12/27 10:38:41;;;;;;;44.30;19.43;;;;;;;;;;5041842;28;20237;-80
2021/12/27 10:41:10;;;;;;;52.13;22.30;;;;;;;;;;5043875;28;20672;-80
2021/12/27 10:43:39;;;;;;;46.63;22.17;;;;;;;;;;5038958;28;20313;-79
2021/12/27 10:46:08;;;;;;;45.53;20.73;;;;;;;;;;5036792;28;20666;-79
2021/12/27 10:48:35;;;;;;;44.53;20.13;;;;;;;;;;5036608;28;20280;-79
2021/12/27 10:51:03;;;;;;;53.53;21.50;;;;;;;;;;5039184;28;20604;-79
2021/12/27 10:53:42;;;;;;;50.53;20.90;;;;;;;;;;5038540;28;20238;-80
2021/12/27 10:56:09;;;;;;;49.70;21.10;;;;;;;;;;5039978;28;20206;-82
2021/12/27 10:58:38;;;;;;;46.73;20.97;;;;;;;;;;5042406;28;20238;-82
2021/12/27 11:01:07;;;;;;;49.93;21.70;;;;;;;;;;5040833;28;20238;-82
2021/12/27 11:03:36;;;;;;;41.53;21.27;;;;;;;;;;5039682;28;20235;-82
2021/12/27 11:06:04;;;;;;;47.53;21.83;;;;;;;;;;5040213;28;20341;-82
2021/12/27 11:08:32;;;;;;;54.33;21.70;;;;;;;;;;5040223;28;20609;-81
2021/12/27 11:11:00;;;;;;;48.60;20.70;;;;;;;;;;5041511;28;20236;-82
2021/12/27 11:13:27;;;;;;;52.93;21.43;;;;;;;;;;5041015;28;20237;-82
2021/12/27 11:15:55;;;;;;;45.23;20.50;;;;;;;;;;5045838;28;20298;-82
2021/12/27 11:18:22;;;;;;;44.73;19.57;;;;;;;;;;5054186;28;20237;-82
2021/12/27 11:20:51;;;;;;;45.33;20.97;;;;;;;;;;5052220;28;20227;-81
2021/12/27 11:23:18;;;;;;;47.23;21.90;;;;;;;;;;5038280;28;20238;-80
2021/12/27 11:25:46;;;;;;;43.97;21.87;;;;;;;;;;5038111;28;20210;-81
2021/12/27 11:28:29;;;;;;;45.50;20.33;;;;;;;;;;5037785;28;20588;-80
2021/12/27 11:30:58;;;;;;;41.77;21.40;;;;;;;;;;5039074;28;20230;-80
2021/12/27 11:33:26;;;;;;;48.20;21.57;;;;;;;;;;5037698;28;20227;-80
2021/12/27 11:36:10;;;;;;;44.53;20.17;;;;;;;;;;5037810;28;20608;-81
2021/12/27 11:38:38;;;;;;;40.17;19.57;;;;;;;;;;5037321;28;20238;-80
2021/12/27 11:41:06;;;;;;;26.90;14.43;;;;;;;;;;5037104;28;20227;-80
2021/12/27 11:43:51;;;;;;;28.03;15.57;;;;;;;;;;5036295;28;20223;-80
2021/12/27 11:46:18;;;;;;;21.90;13.23;;;;;;;;;;5017071;28;20207;-80
2021/12/27 11:48:46;;;;;;;24.93;13.13;;;;;;;;;;5016782;28;20231;-81
2021/12/27 11:51:14;;;;;;;26.37;15.83;;;;;;;;;;5021462;28;20323;-81
2021/12/27 11:53:47;;;;;;;22.90;14.17;;;;;;;;;;5020940;28;20250;-81
2021/12/27 11:56:17;;;;;;;25.90;15.20;;;;;;;;;;5022868;28;20640;-82
2021/12/27 11:58:45;;;;;;;25.07;14.43;;;;;;;;;;5022007;28;20227;-81
2021/12/27 12:01:27;;;;;;;29.40;15.60;;;;;;;;;;5021684;28;20231;-82
2021/12/27 12:03:58;;;;;;;24.47;13.53;;;;;;;;;;5019185;28;20231;-81
2021/12/27 12:06:38;;;;;;;20.37;13.33;;;;;;;;;;5022902;28;20213;-81
2021/12/27 12:09:10;;;;;;;23.40;13.77;;;;;;;;;;5021286;28;20235;-81
2021/12/27 12:11:37;;;;;;;23.00;14.47;;;;;;;;;;5021847;28;20573;-81
2021/12/27 12:14:23;;;;;;;29.20;13.97;;;;;;;;;;5022060;28;20293;-81
2021/12/27 12:16:50;;;;;;;22.97;12.90;;;;;;;;;;5021385;28;20234;-81
2021/12/27 12:19:18;;;;;;;22.73;12.27;;;;;;;;;;5019428;28;20243;-81
2021/12/27 12:21:50;;;;;;;19.77;12.07;;;;;;;;;;5020484;28;20265;-81
2021/12/27 12:24:18;;;;;;;18.47;11.00;;;;;;;;;;5020479;28;20261;-81
2021/12/27 12:26:49;;;;;;;17.23;11.03;;;;;;;;;;5019852;28;20207;-81
2021/12/27 12:29:16;;;;;;;18.90;11.77;;;;;;;;;;5020130;28;20239;-81
2021/12/27 12:31:43;;;;;;;21.70;11.50;;;;;;;;;;5018639;28;20211;-81
2021/12/27 12:34:11;;;;;;;18.43;10.97;;;;;;;;;;5019067;28;20235;-81
2021/12/27 12:36:47;;;;;;;19.73;11.10;;;;;;;;;;5020816;28;20203;-81
2021/12/27 12:39:14;;;;;;;17.57;9.63;;;;;;;;;;5019950;28;20238;-81
2021/12/27 12:41:42;;;;;;;21.47;9.80;;;;;;;;;;5018771;28;20215;-81
2021/12/27 12:44:09;;;;;;;13.67;9.60;;;;;;;;;;5036840;28;20625;-81
2021/12/27 12:46:40;;;;;;;16.37;10.27;;;;;;;;;;5039422;28;20211;-81
2021/12/27 12:49:08;;;;;;;11.40;8.33;;;;;;;;;;5040043;28;20290;-81
2021/12/27 12:51:36;;;;;;;13.53;8.57;;;;;;;;;;5039940;28;20282;-82
2021/12/27 12:54:07;;;;;;;14.03;8.63;;;;;;;;;;5039118;28;20238;-81
2021/12/27 12:56:35;;;;;;;9.90;7.93;;;;;;;;;;5038428;28;20210;-81
2021/12/27 12:59:02;;;;;;;10.93;7.43;;;;;;;;;;5038040;28;20616;-80
2021/12/27 13:01:29;;;;;;;17.03;7.53;;;;;;;;;;5038121;28;20229;-82
2021/12/27 13:03:57;;;;;;;12.37;7.40;;;;;;;;;;5038158;28;20273;-81
2021/12/27 13:06:24;;;;;;;9.63;6.57;;;;;;;;;;5038829;28;20207;-81
2021/12/27 13:08:52;;;;;;;7.97;6.43;;;;;;;;;;5039135;28;20227;-81
2021/12/27 13:11:21;;;;;;;9.67;6.57;;;;;;;;;;5038449;28;20640;-81
2021/12/27 13:13:48;;;;;;;8.37;6.60;;;;;;;;;;5037895;28;20234;-80
2021/12/27 13:16:19;;;;;;;7.33;6.53;;;;;;;;;;5037890;28;20230;-81
2021/12/27 13:18:46;;;;;;;8.03;6.13;;;;;;;;;;5036943;28;20274;-81
2021/12/27 13:21:13;;;;;;;5.77;5.13;;;;;;;;;;5033597;28;20233;-81
2021/12/27 13:23:41;;;;;;;6.53;5.50;;;;;;;;;;5029784;28;20253;-81
2021/12/27 13:26:09;;;;;;;6.57;5.83;;;;;;;;;;5040147;28;20203;-82
2021/12/27 13:28:42;;;;;;;6.07;5.47;;;;;;;;;;5046155;28;20230;-82
2021/12/27 13:31:09;;;;;;;6.50;5.57;;;;;;;;;;5038076;28;20243;-81
2021/12/27 13:33:42;;;;;;;7.97;5.30;;;;;;;;;;5037060;28;20331;-81
2021/12/27 13:36:10;;;;;;;6.40;5.17;;;;;;;;;;5038181;28;20211;-80
2021/12/27 13:38:38;;;;;;;6.43;5.23;;;;;;;;;;5038926;28;20242;-81
2021/12/27 13:41:07;;;;;;;6.20;5.10;;;;;;;;;;5036859;28;20225;-81
2021/12/27 13:43:35;;;;;;;8.90;5.03;;;;;;;;;;5037764;28;20234;-81
2021/12/27 13:46:14;;;;;;;5.27;4.53;;;;;;;;;;5037292;28;20206;-82
2021/12/27 13:48:41;;;;;;;4.40;4.00;;;;;;;;;;5036793;28;20643;-81
2021/12/27 13:51:09;;;;;;;4.83;4.33;;;;;;;;;;5036626;28;20242;-81
2021/12/27 13:53:36;;;;;;;5.87;4.20;;;;;;;;;;5037980;28;20808;-80
2021/12/27 13:56:12;;;;;;;5.13;4.63;;;;;;;;;;5038234;28;20705;-80
2021/12/27 13:58:41;;;;;;;7.00;4.77;;;;;;;;;;5036457;28;20226;-80
2021/12/27 14:01:13;;;;;;;4.80;4.40;;;;;;;;;;5036058;28;20223;-81
2021/12/27 14:03:42;;;;;;;4.83;4.33;;;;;;;;;;5033781;28;20227;-80
2021/12/27 14:06:11;;;;;;;5.00;4.50;;;;;;;;;;5035573;28;20203;-81
2021/12/27 14:08:38;;;;;;;4.70;4.20;;;;;;;;;;5037664;28;20226;-81
2021/12/27 14:11:10;;;;;;;4.57;4.07;;;;;;;;;;5037661;28;20215;-81
2021/12/27 14:13:52;;;;;;;5.50;4.73;;;;;;;;;;5038052;28;20254;-81
2021/12/27 14:16:25;;;;;;;4.93;4.23;;;;;;;;;;5040216;28;20198;-81
2021/12/27 14:19:02;;;;;;;6.63;4.17;;;;;;;;;;5040424;28;20223;-81
2021/12/27 14:21:30;;;;;;;4.90;4.17;;;;;;;;;;5036889;28;20222;-82
2021/12/27 14:24:04;;;;;;;8.73;4.30;;;;;;;;;;5037450;28;20630;-81
2021/12/27 14:26:32;;;;;;;4.33;3.93;;;;;;;;;;5041988;28;20201;-81
2021/12/27 14:29:14;;;;;;;4.53;4.13;;;;;;;;;;5049182;28;20242;-81